sensor_id;sensor_type;location;lat;lon;timestamp;temperature;humidity
68251;DHT22;55066;51.560;4.642;2022-10-26T00:01:12;11.61;99.99
68251;DHT22;55066;51.560;4.642;2022-10-26T00:03:39;11.67;99.99
68251;DHT22;55066;51.560;4.642;2022-10-26T00:06:11;11.64;99.99
68251;DHT22;55066;51.560;4.642;2022-10-26T00:08:37;11.60;99.99
68251;DHT22;55066;51.560;4.642;2022-10-26T00:11:03;11.61;99.99
68251;DHT22;55066;51.560;4.642;2022-10-26T00:13:28;11.60;99.99
68251;DHT22;55066;51.560;4.642;2022-10-26T00:15:54;11.61;99.99
68251;DHT22;55066;51.560;4.642;2022-10-26T00:18:20;11.60;99.99
68251;DHT22;55066;51.560;4.642;2022-10-26T00:20:45;11.58;99.99
68251;DHT22;55066;51.560;4.642;2022-10-26T00:23:11;11.58;99.99
68251;DHT22;55066;51.560;4.642;2022-10-26T00:25:36;11.58;99.99
68251;DHT22;55066;51.560;4.642;2022-10-26T00:28:02;11.68;99.99
68251;DHT22;55066;51.560;4.642;2022-10-26T00:30:27;11.75;99.99
68251;DHT22;55066;51.560;4.642;2022-10-26T00:32:52;11.78;99.99
68251;DHT22;55066;51.560;4.642;2022-10-26T00:35:18;11.78;99.99
68251;DHT22;55066;51.560;4.642;2022-10-26T00:37:43;11.83;99.99
68251;DHT22;55066;51.560;4.642;2022-10-26T00:40:09;11.89;99.99
68251;DHT22;55066;51.560;4.642;2022-10-26T00:42:35;11.92;99.99
68251;DHT22;55066;51.560;4.642;2022-10-26T00:45:14;11.93;99.99
68251;DHT22;55066;51.560;4.642;2022-10-26T00:47:46;11.83;99.99
68251;DHT22;55066;51.560;4.642;2022-10-26T00:50:19;11.78;99.99
68251;DHT22;55066;51.560;4.642;2022-10-26T00:52:45;11.83;99.99
68251;DHT22;55066;51.560;4.642;2022-10-26T00:55:11;11.74;99.99
68251;DHT22;55066;51.560;4.642;2022-10-26T00:57:37;11.69;99.99
68251;DHT22;55066;51.560;4.642;2022-10-26T01:00:05;11.65;99.99
68251;DHT22;55066;51.560;4.642;2022-10-26T01:02:31;11.64;99.99
68251;DHT22;55066;51.560;4.642;2022-10-26T01:04:56;11.71;99.99
68251;DHT22;55066;51.560;4.642;2022-10-26T01:07:23;11.68;99.99
68251;DHT22;55066;51.560;4.642;2022-10-26T01:09:49;11.72;99.99
68251;DHT22;55066;51.560;4.642;2022-10-26T01:12:15;11.77;99.99
68251;DHT22;55066;51.560;4.642;2022-10-26T01:14:41;11.74;99.99
68251;DHT22;55066;51.560;4.642;2022-10-26T01:20:15;11.71;99.99
68251;DHT22;55066;51.560;4.642;2022-10-26T01:22:51;11.71;99.99
68251;DHT22;55066;51.560;4.642;2022-10-26T01:31:38;11.65;99.99
68251;DHT22;55066;51.560;4.642;2022-10-26T01:34:10;11.60;99.99
68251;DHT22;55066;51.560;4.642;2022-10-26T01:36:52;11.60;99.99
68251;DHT22;55066;51.560;4.642;2022-10-26T01:39:24;11.57;99.99
68251;DHT22;55066;51.560;4.642;2022-10-26T01:41:59;11.55;99.99
68251;DHT22;55066;51.560;4.642;2022-10-26T01:44:29;11.65;99.99
68251;DHT22;55066;51.560;4.642;2022-10-26T01:46:57;11.68;99.99
68251;DHT22;55066;51.560;4.642;2022-10-26T01:49:32;11.79;99.99
68251;DHT22;55066;51.560;4.642;2022-10-26T01:51:59;11.81;99.99
68251;DHT22;55066;51.560;4.642;2022-10-26T01:54:25;11.82;99.99
68251;DHT22;55066;51.560;4.642;2022-10-26T01:57:00;11.81;99.99
68251;DHT22;55066;51.560;4.642;2022-10-26T02:05:46;11.92;99.99
68251;DHT22;55066;51.560;4.642;2022-10-26T02:13:44;12.12;99.32
68251;DHT22;55066;51.560;4.642;2022-10-26T02:16:40;12.17;99.99
68251;DHT22;55066;51.560;4.642;2022-10-26T02:21:46;12.15;99.99
68251;DHT22;55066;51.560;4.642;2022-10-26T02:24:15;12.05;99.99
68251;DHT22;55066;51.560;4.642;2022-10-26T02:26:43;12.10;99.99
68251;DHT22;55066;51.560;4.642;2022-10-26T02:29:13;12.03;99.99
68251;DHT22;55066;51.560;4.642;2022-10-26T02:31:40;11.96;99.99
68251;DHT22;55066;51.560;4.642;2022-10-26T02:34:10;11.88;99.99
68251;DHT22;55066;51.560;4.642;2022-10-26T02:36:41;11.92;99.99
68251;DHT22;55066;51.560;4.642;2022-10-26T02:39:09;11.95;99.99
68251;DHT22;55066;51.560;4.642;2022-10-26T02:41:35;11.85;99.99
68251;DHT22;55066;51.560;4.642;2022-10-26T02:44:17;11.72;99.99
68251;DHT22;55066;51.560;4.642;2022-10-26T02:46:44;11.74;99.99
68251;DHT22;55066;51.560;4.642;2022-10-26T02:49:10;11.81;99.99
68251;DHT22;55066;51.560;4.642;2022-10-26T02:51:57;11.83;99.99
68251;DHT22;55066;51.560;4.642;2022-10-26T02:54:52;11.86;99.99
68251;DHT22;55066;51.560;4.642;2022-10-26T02:57:23;11.83;99.99
68251;DHT22;55066;51.560;4.642;2022-10-26T02:59:51;11.85;99.99
68251;DHT22;55066;51.560;4.642;2022-10-26T03:02:19;11.86;99.99
68251;DHT22;55066;51.560;4.642;2022-10-26T03:04:46;11.90;99.99
68251;DHT22;55066;51.560;4.642;2022-10-26T03:07:22;11.90;99.99
68251;DHT22;55066;51.560;4.642;2022-10-26T03:09:48;11.86;99.99
68251;DHT22;55066;51.560;4.642;2022-10-26T03:12:14;11.86;99.99
68251;DHT22;55066;51.560;4.642;2022-10-26T03:14:40;12.00;99.99
68251;DHT22;55066;51.560;4.642;2022-10-26T03:17:06;12.00;99.99
68251;DHT22;55066;51.560;4.642;2022-10-26T03:19:31;11.98;99.99
68251;DHT22;55066;51.560;4.642;2022-10-26T03:21:56;12.00;99.99
68251;DHT22;55066;51.560;4.642;2022-10-26T03:24:22;12.06;99.99
68251;DHT22;55066;51.560;4.642;2022-10-26T03:26:47;12.20;99.99
68251;DHT22;55066;51.560;4.642;2022-10-26T03:29:13;12.20;99.99
68251;DHT22;55066;51.560;4.642;2022-10-26T03:31:38;12.19;98.68
68251;DHT22;55066;51.560;4.642;2022-10-26T03:34:03;12.22;99.93
68251;DHT22;55066;51.560;4.642;2022-10-26T03:36:29;12.27;99.99
68251;DHT22;55066;51.560;4.642;2022-10-26T03:38:54;12.26;99.99
68251;DHT22;55066;51.560;4.642;2022-10-26T03:41:20;12.22;99.99
68251;DHT22;55066;51.560;4.642;2022-10-26T03:43:48;12.26;99.99
68251;DHT22;55066;51.560;4.642;2022-10-26T03:46:13;12.29;99.99
68251;DHT22;55066;51.560;4.642;2022-10-26T03:48:39;12.24;99.99
68251;DHT22;55066;51.560;4.642;2022-10-26T03:51:04;12.27;99.99
68251;DHT22;55066;51.560;4.642;2022-10-26T03:53:30;12.30;99.99
68251;DHT22;55066;51.560;4.642;2022-10-26T03:55:56;12.27;99.99
68251;DHT22;55066;51.560;4.642;2022-10-26T03:58:22;12.37;99.99
68251;DHT22;55066;51.560;4.642;2022-10-26T04:00:47;12.30;99.99
68251;DHT22;55066;51.560;4.642;2022-10-26T04:03:13;12.26;99.99
68251;DHT22;55066;51.560;4.642;2022-10-26T04:05:38;12.33;99.99
68251;DHT22;55066;51.560;4.642;2022-10-26T04:08:04;12.33;99.99
68251;DHT22;55066;51.560;4.642;2022-10-26T04:10:30;12.36;99.99
68251;DHT22;55066;51.560;4.642;2022-10-26T04:12:55;12.36;99.99
68251;DHT22;55066;51.560;4.642;2022-10-26T04:15:22;12.38;99.99
68251;DHT22;55066;51.560;4.642;2022-10-26T04:17:47;12.43;99.99
68251;DHT22;55066;51.560;4.642;2022-10-26T04:20:13;12.48;99.99
68251;DHT22;55066;51.560;4.642;2022-10-26T04:22:39;12.48;99.99
68251;DHT22;55066;51.560;4.642;2022-10-26T04:25:05;12.55;99.99
68251;DHT22;55066;51.560;4.642;2022-10-26T04:27:31;12.54;99.99
68251;DHT22;55066;51.560;4.642;2022-10-26T04:29:56;12.57;97.72
68251;DHT22;55066;51.560;4.642;2022-10-26T04:32:21;12.65;99.99
68251;DHT22;55066;51.560;4.642;2022-10-26T04:34:47;12.62;99.99
68251;DHT22;55066;51.560;4.642;2022-10-26T04:37:12;12.64;99.99
68251;DHT22;55066;51.560;4.642;2022-10-26T04:39:39;12.65;99.99
68251;DHT22;55066;51.560;4.642;2022-10-26T04:42:04;12.62;99.99
68251;DHT22;55066;51.560;4.642;2022-10-26T04:44:30;12.57;99.99
68251;DHT22;55066;51.560;4.642;2022-10-26T04:46:55;12.64;99.99
68251;DHT22;55066;51.560;4.642;2022-10-26T04:49:20;12.62;99.99
68251;DHT22;55066;51.560;4.642;2022-10-26T04:51:46;12.65;99.76
68251;DHT22;55066;51.560;4.642;2022-10-26T04:54:11;12.68;98.87
68251;DHT22;55066;51.560;4.642;2022-10-26T04:56:36;12.61;99.99
68251;DHT22;55066;51.560;4.642;2022-10-26T04:59:02;12.57;99.40
68251;DHT22;55066;51.560;4.642;2022-10-26T05:01:27;12.47;97.81
68251;DHT22;55066;51.560;4.642;2022-10-26T05:03:54;12.51;99.43
68251;DHT22;55066;51.560;4.642;2022-10-26T05:06:20;12.51;99.62
68251;DHT22;55066;51.560;4.642;2022-10-26T05:08:46;12.55;97.94
68251;DHT22;55066;51.560;4.642;2022-10-26T05:11:11;12.62;99.41
68251;DHT22;55066;51.560;4.642;2022-10-26T05:13:37;12.55;99.03
68251;DHT22;55066;51.560;4.642;2022-10-26T05:16:02;12.65;99.48
68251;DHT22;55066;51.560;4.642;2022-10-26T05:18:28;12.57;95.54
68251;DHT22;55066;51.560;4.642;2022-10-26T05:20:54;12.60;98.57
68251;DHT22;55066;51.560;4.642;2022-10-26T05:23:20;12.62;98.37
68251;DHT22;55066;51.560;4.642;2022-10-26T05:25:46;12.62;94.81
68251;DHT22;55066;51.560;4.642;2022-10-26T05:28:12;12.69;99.93
68251;DHT22;55066;51.560;4.642;2022-10-26T05:30:42;12.74;99.99
68251;DHT22;55066;51.560;4.642;2022-10-26T05:33:12;12.72;97.24
68251;DHT22;55066;51.560;4.642;2022-10-26T05:35:38;12.84;99.60
68251;DHT22;55066;51.560;4.642;2022-10-26T05:38:15;12.77;98.28
68251;DHT22;55066;51.560;4.642;2022-10-26T05:40:50;12.82;96.46
68251;DHT22;55066;51.560;4.642;2022-10-26T05:43:17;12.78;97.59
68251;DHT22;55066;51.560;4.642;2022-10-26T05:45:43;12.78;99.91
68251;DHT22;55066;51.560;4.642;2022-10-26T05:48:08;12.72;97.60
68251;DHT22;55066;51.560;4.642;2022-10-26T05:50:33;12.78;99.87
68251;DHT22;55066;51.560;4.642;2022-10-26T05:52:59;12.78;99.99
68251;DHT22;55066;51.560;4.642;2022-10-26T05:55:24;12.77;97.73
68251;DHT22;55066;51.560;4.642;2022-10-26T05:57:50;12.82;98.39
68251;DHT22;55066;51.560;4.642;2022-10-26T06:00:21;12.82;96.06
68251;DHT22;55066;51.560;4.642;2022-10-26T06:02:51;12.89;99.85
68251;DHT22;55066;51.560;4.642;2022-10-26T06:05:22;12.91;99.24
68251;DHT22;55066;51.560;4.642;2022-10-26T06:07:48;12.95;99.67
68251;DHT22;55066;51.560;4.642;2022-10-26T06:10:14;12.95;98.47
68251;DHT22;55066;51.560;4.642;2022-10-26T06:12:40;12.96;98.98
68251;DHT22;55066;51.560;4.642;2022-10-26T06:15:06;12.98;96.82
68251;DHT22;55066;51.560;4.642;2022-10-26T06:17:42;13.00;99.20
68251;DHT22;55066;51.560;4.642;2022-10-26T06:22:46;12.95;97.60
68251;DHT22;55066;51.560;4.642;2022-10-26T06:30:44;12.91;98.60
68251;DHT22;55066;51.560;4.642;2022-10-26T06:33:11;12.81;98.55
68251;DHT22;55066;51.560;4.642;2022-10-26T06:35:44;12.80;99.99
68251;DHT22;55066;51.560;4.642;2022-10-26T06:38:18;12.69;99.99
68251;DHT22;55066;51.560;4.642;2022-10-26T06:40:47;12.64;99.99
68251;DHT22;55066;51.560;4.642;2022-10-26T06:43:24;12.53;99.99
68251;DHT22;55066;51.560;4.642;2022-10-26T06:48:48;12.81;99.99
68251;DHT22;55066;51.560;4.642;2022-10-26T06:51:16;12.87;99.99
68251;DHT22;55066;51.560;4.642;2022-10-26T06:56:16;12.84;99.99
68251;DHT22;55066;51.560;4.642;2022-10-26T06:58:43;12.81;99.99
68251;DHT22;55066;51.560;4.642;2022-10-26T07:01:10;12.88;99.99
68251;DHT22;55066;51.560;4.642;2022-10-26T07:03:36;12.87;99.99
68251;DHT22;55066;51.560;4.642;2022-10-26T07:06:02;12.95;99.99
68251;DHT22;55066;51.560;4.642;2022-10-26T07:08:29;12.95;99.99
68251;DHT22;55066;51.560;4.642;2022-10-26T07:10:56;12.98;99.99
68251;DHT22;55066;51.560;4.642;2022-10-26T07:13:21;13.09;99.99
68251;DHT22;55066;51.560;4.642;2022-10-26T07:15:46;13.12;99.99
68251;DHT22;55066;51.560;4.642;2022-10-26T07:18:12;13.22;99.99
68251;DHT22;55066;51.560;4.642;2022-10-26T07:20:39;13.26;99.99
68251;DHT22;55066;51.560;4.642;2022-10-26T07:23:06;13.39;99.93
68251;DHT22;55066;51.560;4.642;2022-10-26T07:25:32;13.40;99.81
68251;DHT22;55066;51.560;4.642;2022-10-26T07:27:58;13.44;99.81
68251;DHT22;55066;51.560;4.642;2022-10-26T07:30:25;13.61;99.52
68251;DHT22;55066;51.560;4.642;2022-10-26T07:32:58;13.67;98.61
68251;DHT22;55066;51.560;4.642;2022-10-26T07:35:23;13.78;98.75
68251;DHT22;55066;51.560;4.642;2022-10-26T07:37:49;13.77;99.31
68251;DHT22;55066;51.560;4.642;2022-10-26T07:40:14;13.78;99.23
68251;DHT22;55066;51.560;4.642;2022-10-26T07:42:39;13.84;99.29
68251;DHT22;55066;51.560;4.642;2022-10-26T07:45:05;13.84;99.30
68251;DHT22;55066;51.560;4.642;2022-10-26T07:47:33;13.92;99.12
68251;DHT22;55066;51.560;4.642;2022-10-26T07:50:02;13.95;99.11
68251;DHT22;55066;51.560;4.642;2022-10-26T07:52:29;13.98;98.38
68251;DHT22;55066;51.560;4.642;2022-10-26T07:54:54;14.08;98.99
68251;DHT22;55066;51.560;4.642;2022-10-26T07:57:20;14.13;98.89
68251;DHT22;55066;51.560;4.642;2022-10-26T07:59:45;14.18;99.19
68251;DHT22;55066;51.560;4.642;2022-10-26T08:02:10;14.32;98.93
68251;DHT22;55066;51.560;4.642;2022-10-26T08:04:36;14.46;98.36
68251;DHT22;55066;51.560;4.642;2022-10-26T08:07:01;14.50;98.43
68251;DHT22;55066;51.560;4.642;2022-10-26T08:09:27;14.56;97.86
68251;DHT22;55066;51.560;4.642;2022-10-26T08:11:52;14.61;98.29
68251;DHT22;55066;51.560;4.642;2022-10-26T08:14:17;14.68;98.29
68251;DHT22;55066;51.560;4.642;2022-10-26T08:16:43;14.84;97.56
68251;DHT22;55066;51.560;4.642;2022-10-26T08:19:08;14.89;97.51
68251;DHT22;55066;51.560;4.642;2022-10-26T08:21:34;14.92;97.95
68251;DHT22;55066;51.560;4.642;2022-10-26T08:23:59;15.06;97.56
68251;DHT22;55066;51.560;4.642;2022-10-26T08:26:24;15.19;97.24
68251;DHT22;55066;51.560;4.642;2022-10-26T08:28:50;15.21;97.37
68251;DHT22;55066;51.560;4.642;2022-10-26T08:31:15;15.40;96.52
68251;DHT22;55066;51.560;4.642;2022-10-26T08:33:41;15.44;96.49
68251;DHT22;55066;51.560;4.642;2022-10-26T08:36:06;15.50;96.55
68251;DHT22;55066;51.560;4.642;2022-10-26T08:38:31;15.53;96.27
68251;DHT22;55066;51.560;4.642;2022-10-26T08:40:58;15.57;96.13
68251;DHT22;55066;51.560;4.642;2022-10-26T08:43:38;15.70;96.32
68251;DHT22;55066;51.560;4.642;2022-10-26T08:46:10;15.74;95.98
68251;DHT22;55066;51.560;4.642;2022-10-26T08:48:44;15.83;96.14
68251;DHT22;55066;51.560;4.642;2022-10-26T08:51:33;16.00;95.26
68251;DHT22;55066;51.560;4.642;2022-10-26T08:56:45;16.08;95.62
68251;DHT22;55066;51.560;4.642;2022-10-26T08:59:22;16.18;95.45
68251;DHT22;55066;51.560;4.642;2022-10-26T09:01:51;16.22;94.43
68251;DHT22;55066;51.560;4.642;2022-10-26T09:04:18;16.22;94.37
68251;DHT22;55066;51.560;4.642;2022-10-26T09:15:47;16.46;94.16
68251;DHT22;55066;51.560;4.642;2022-10-26T09:18:31;16.51;93.77
68251;DHT22;55066;51.560;4.642;2022-10-26T09:21:26;16.55;94.67
68251;DHT22;55066;51.560;4.642;2022-10-26T09:24:00;16.64;94.92
68251;DHT22;55066;51.560;4.642;2022-10-26T09:26:35;16.72;94.77
68251;DHT22;55066;51.560;4.642;2022-10-26T09:29:05;16.72;94.95
68251;DHT22;55066;51.560;4.642;2022-10-26T09:31:41;16.90;94.32
68251;DHT22;55066;51.560;4.642;2022-10-26T09:34:15;17.04;93.91
68251;DHT22;55066;51.560;4.642;2022-10-26T09:36:41;17.21;92.47
68251;DHT22;55066;51.560;4.642;2022-10-26T09:44:49;17.39;91.82
68251;DHT22;55066;51.560;4.642;2022-10-26T09:47:39;17.48;92.33
68251;DHT22;55066;51.560;4.642;2022-10-26T09:52:44;17.73;92.10
68251;DHT22;55066;51.560;4.642;2022-10-26T09:55:11;17.66;91.23
68251;DHT22;55066;51.560;4.642;2022-10-26T09:57:42;17.70;92.54
68251;DHT22;55066;51.560;4.642;2022-10-26T10:00:16;17.62;89.54
68251;DHT22;55066;51.560;4.642;2022-10-26T10:02:44;17.56;92.47
68251;DHT22;55066;51.560;4.642;2022-10-26T10:05:21;17.91;92.36
68251;DHT22;55066;51.560;4.642;2022-10-26T10:07:47;18.20;92.08
68251;DHT22;55066;51.560;4.642;2022-10-26T10:10:18;18.11;89.40
68251;DHT22;55066;51.560;4.642;2022-10-26T10:12:45;17.96;90.03
68251;DHT22;55066;51.560;4.642;2022-10-26T10:15:22;17.59;90.29
68251;DHT22;55066;51.560;4.642;2022-10-26T10:17:53;17.55;93.30
68251;DHT22;55066;51.560;4.642;2022-10-26T10:20:30;17.52;91.33
68251;DHT22;55066;51.560;4.642;2022-10-26T10:23:00;17.53;92.66
68251;DHT22;55066;51.560;4.642;2022-10-26T10:25:38;17.66;92.93
68251;DHT22;55066;51.560;4.642;2022-10-26T10:28:24;17.77;91.21
68251;DHT22;55066;51.560;4.642;2022-10-26T10:30:57;17.87;92.39
68251;DHT22;55066;51.560;4.642;2022-10-26T10:33:45;17.98;91.98
68251;DHT22;55066;51.560;4.642;2022-10-26T10:36:20;18.03;92.41
68251;DHT22;55066;51.560;4.642;2022-10-26T10:38:47;17.97;92.72
68251;DHT22;55066;51.560;4.642;2022-10-26T10:41:28;18.01;92.15
68251;DHT22;55066;51.560;4.642;2022-10-26T10:44:05;18.39;91.90
68251;DHT22;55066;51.560;4.642;2022-10-26T10:46:32;18.53;91.74
68251;DHT22;55066;51.560;4.642;2022-10-26T10:49:06;18.76;90.63
68251;DHT22;55066;51.560;4.642;2022-10-26T10:51:40;18.66;90.32
68251;DHT22;55066;51.560;4.642;2022-10-26T10:54:23;18.45;90.38
68251;DHT22;55066;51.560;4.642;2022-10-26T10:56:52;18.42;90.86
68251;DHT22;55066;51.560;4.642;2022-10-26T11:02:10;18.47;91.07
68251;DHT22;55066;51.560;4.642;2022-10-26T11:07:15;18.48;91.51
68251;DHT22;55066;51.560;4.642;2022-10-26T11:09:43;18.53;91.48
68251;DHT22;55066;51.560;4.642;2022-10-26T11:12:15;18.56;90.80
68251;DHT22;55066;51.560;4.642;2022-10-26T11:14:44;18.79;90.98
68251;DHT22;55066;51.560;4.642;2022-10-26T11:17:29;18.85;90.71
68251;DHT22;55066;51.560;4.642;2022-10-26T11:20:19;19.02;90.03
68251;DHT22;55066;51.560;4.642;2022-10-26T11:23:05;19.04;89.78
68251;DHT22;55066;51.560;4.642;2022-10-26T11:25:42;19.10;89.15
68251;DHT22;55066;51.560;4.642;2022-10-26T11:28:39;19.20;88.61
68251;DHT22;55066;51.560;4.642;2022-10-26T11:31:09;19.23;88.56
68251;DHT22;55066;51.560;4.642;2022-10-26T11:33:40;19.34;87.70
68251;DHT22;55066;51.560;4.642;2022-10-26T11:36:16;19.44;86.60
68251;DHT22;55066;51.560;4.642;2022-10-26T11:38:48;19.52;87.01
68251;DHT22;55066;51.560;4.642;2022-10-26T11:44:24;19.66;87.80
68251;DHT22;55066;51.560;4.642;2022-10-26T11:46:56;19.71;86.67
68251;DHT22;55066;51.560;4.642;2022-10-26T11:52:15;19.72;86.02
68251;DHT22;55066;51.560;4.642;2022-10-26T11:54:55;19.63;85.80
68251;DHT22;55066;51.560;4.642;2022-10-26T11:57:22;19.61;86.42
68251;DHT22;55066;51.560;4.642;2022-10-26T11:59:52;19.57;85.68
68251;DHT22;55066;51.560;4.642;2022-10-26T12:02:20;19.72;85.46
68251;DHT22;55066;51.560;4.642;2022-10-26T12:04:52;19.82;85.27
68251;DHT22;55066;51.560;4.642;2022-10-26T12:07:38;19.87;86.50
68251;DHT22;55066;51.560;4.642;2022-10-26T12:10:21;19.92;85.21
68251;DHT22;55066;51.560;4.642;2022-10-26T12:13:02;19.97;84.59
68251;DHT22;55066;51.560;4.642;2022-10-26T12:15:35;19.99;85.22
68251;DHT22;55066;51.560;4.642;2022-10-26T12:18:15;20.00;84.75
68251;DHT22;55066;51.560;4.642;2022-10-26T12:21:00;20.07;85.47
68251;DHT22;55066;51.560;4.642;2022-10-26T12:23:28;20.10;84.68
68251;DHT22;55066;51.560;4.642;2022-10-26T12:34:11;20.33;83.02
68251;DHT22;55066;51.560;4.642;2022-10-26T12:36:47;20.31;82.89
68251;DHT22;55066;51.560;4.642;2022-10-26T12:39:27;20.47;83.03
68251;DHT22;55066;51.560;4.642;2022-10-26T12:41:58;20.58;83.90
68251;DHT22;55066;51.560;4.642;2022-10-26T12:45:01;20.58;82.21
68251;DHT22;55066;51.560;4.642;2022-10-26T12:52:43;20.55;83.32
68251;DHT22;55066;51.560;4.642;2022-10-26T12:58:43;20.67;83.49
68251;DHT22;55066;51.560;4.642;2022-10-26T13:04:23;20.54;82.00
68251;DHT22;55066;51.560;4.642;2022-10-26T13:09:37;20.64;82.02
68251;DHT22;55066;51.560;4.642;2022-10-26T13:12:03;20.61;82.61
68251;DHT22;55066;51.560;4.642;2022-10-26T13:14:35;20.64;81.97
68251;DHT22;55066;51.560;4.642;2022-10-26T13:17:03;20.69;82.96
68251;DHT22;55066;51.560;4.642;2022-10-26T13:19:41;20.81;82.90
68251;DHT22;55066;51.560;4.642;2022-10-26T13:22:13;20.75;83.57
68251;DHT22;55066;51.560;4.642;2022-10-26T13:24:46;20.68;81.98
68251;DHT22;55066;51.560;4.642;2022-10-26T13:30:18;20.81;84.01
68251;DHT22;55066;51.560;4.642;2022-10-26T13:32:53;20.67;83.06
68251;DHT22;55066;51.560;4.642;2022-10-26T13:35:20;20.58;85.30
68251;DHT22;55066;51.560;4.642;2022-10-26T13:37:49;20.61;83.53
68251;DHT22;55066;51.560;4.642;2022-10-26T13:40:18;20.67;84.19
68251;DHT22;55066;51.560;4.642;2022-10-26T13:42:46;20.44;82.26
68251;DHT22;55066;51.560;4.642;2022-10-26T13:45:27;20.54;82.61
68251;DHT22;55066;51.560;4.642;2022-10-26T13:48:04;20.56;82.47
68251;DHT22;55066;51.560;4.642;2022-10-26T13:50:51;20.56;82.46
68251;DHT22;55066;51.560;4.642;2022-10-26T13:55:53;20.67;84.74
68251;DHT22;55066;51.560;4.642;2022-10-26T13:58:31;20.79;82.59
68251;DHT22;55066;51.560;4.642;2022-10-26T14:03:36;20.75;83.55
68251;DHT22;55066;51.560;4.642;2022-10-26T14:06:30;20.72;82.85
68251;DHT22;55066;51.560;4.642;2022-10-26T14:09:02;20.81;82.74
68251;DHT22;55066;51.560;4.642;2022-10-26T14:11:49;20.71;84.08
68251;DHT22;55066;51.560;4.642;2022-10-26T14:14:19;20.64;83.41
68251;DHT22;55066;51.560;4.642;2022-10-26T14:16:46;20.75;83.37
68251;DHT22;55066;51.560;4.642;2022-10-26T14:19:21;20.79;82.80
68251;DHT22;55066;51.560;4.642;2022-10-26T14:21:49;20.73;82.04
68251;DHT22;55066;51.560;4.642;2022-10-26T14:24:22;20.73;82.23
68251;DHT22;55066;51.560;4.642;2022-10-26T14:26:48;20.73;82.37
68251;DHT22;55066;51.560;4.642;2022-10-26T14:29:16;20.76;84.16
68251;DHT22;55066;51.560;4.642;2022-10-26T14:31:42;20.68;82.36
68251;DHT22;55066;51.560;4.642;2022-10-26T14:34:10;20.49;83.43
68251;DHT22;55066;51.560;4.642;2022-10-26T14:36:47;20.37;82.69
68251;DHT22;55066;51.560;4.642;2022-10-26T14:39:34;20.31;83.31
68251;DHT22;55066;51.560;4.642;2022-10-26T14:42:16;20.24;83.85
68251;DHT22;55066;51.560;4.642;2022-10-26T14:44:44;20.23;84.19
68251;DHT22;55066;51.560;4.642;2022-10-26T14:47:23;20.17;85.00
68251;DHT22;55066;51.560;4.642;2022-10-26T14:49:48;20.03;84.37
68251;DHT22;55066;51.560;4.642;2022-10-26T14:52:20;19.94;84.72
68251;DHT22;55066;51.560;4.642;2022-10-26T14:55:03;19.93;85.81
68251;DHT22;55066;51.560;4.642;2022-10-26T14:57:37;19.92;86.73
68251;DHT22;55066;51.560;4.642;2022-10-26T15:02:37;19.90;86.18
68251;DHT22;55066;51.560;4.642;2022-10-26T15:05:20;19.85;87.98
68251;DHT22;55066;51.560;4.642;2022-10-26T15:07:50;19.93;85.33
68251;DHT22;55066;51.560;4.642;2022-10-26T15:13:19;19.94;85.45
68251;DHT22;55066;51.560;4.642;2022-10-26T15:15:47;20.56;83.95
68251;DHT22;55066;51.560;4.642;2022-10-26T15:18:39;20.78;83.43
68251;DHT22;55066;51.560;4.642;2022-10-26T15:21:25;20.52;84.27
68251;DHT22;55066;51.560;4.642;2022-10-26T15:23:52;20.01;86.00
68251;DHT22;55066;51.560;4.642;2022-10-26T15:26:19;19.73;86.19
68251;DHT22;55066;51.560;4.642;2022-10-26T15:28:44;19.75;86.63
68251;DHT22;55066;51.560;4.642;2022-10-26T15:34:04;20.17;85.13
68251;DHT22;55066;51.560;4.642;2022-10-26T15:36:31;19.90;85.56
68251;DHT22;55066;51.560;4.642;2022-10-26T15:38:57;19.57;87.02
68251;DHT22;55066;51.560;4.642;2022-10-26T15:41:29;19.30;88.39
68251;DHT22;55066;51.560;4.642;2022-10-26T15:43:56;19.13;88.50
68251;DHT22;55066;51.560;4.642;2022-10-26T15:46:24;19.06;90.48
68251;DHT22;55066;51.560;4.642;2022-10-26T15:48:54;18.93;89.11
68251;DHT22;55066;51.560;4.642;2022-10-26T15:51:20;18.90;89.07
68251;DHT22;55066;51.560;4.642;2022-10-26T15:53:46;18.86;89.78
68251;DHT22;55066;51.560;4.642;2022-10-26T15:56:14;18.82;89.30
68251;DHT22;55066;51.560;4.642;2022-10-26T15:58:40;18.89;89.56
68251;DHT22;55066;51.560;4.642;2022-10-26T16:01:06;18.92;91.16
68251;DHT22;55066;51.560;4.642;2022-10-26T16:03:31;18.90;89.11
68251;DHT22;55066;51.560;4.642;2022-10-26T16:05:59;18.89;89.50
68251;DHT22;55066;51.560;4.642;2022-10-26T16:08:27;18.73;89.62
68251;DHT22;55066;51.560;4.642;2022-10-26T16:10:53;18.58;90.81
68251;DHT22;55066;51.560;4.642;2022-10-26T16:13:19;18.45;90.78
68251;DHT22;55066;51.560;4.642;2022-10-26T16:15:44;18.31;91.67
68251;DHT22;55066;51.560;4.642;2022-10-26T16:18:10;18.24;92.20
68251;DHT22;55066;51.560;4.642;2022-10-26T16:20:35;18.08;92.11
68251;DHT22;55066;51.560;4.642;2022-10-26T16:23:01;17.86;93.54
68251;DHT22;55066;51.560;4.642;2022-10-26T16:25:33;17.61;93.44
68251;DHT22;55066;51.560;4.642;2022-10-26T16:27:59;17.46;94.06
68251;DHT22;55066;51.560;4.642;2022-10-26T16:30:25;17.32;95.21
68251;DHT22;55066;51.560;4.642;2022-10-26T16:32:50;17.31;95.55
68251;DHT22;55066;51.560;4.642;2022-10-26T16:35:15;17.18;95.26
68251;DHT22;55066;51.560;4.642;2022-10-26T16:37:41;17.14;95.50
68251;DHT22;55066;51.560;4.642;2022-10-26T16:40:07;17.03;95.65
68251;DHT22;55066;51.560;4.642;2022-10-26T16:42:33;16.95;95.82
68251;DHT22;55066;51.560;4.642;2022-10-26T16:44:58;16.91;95.86
68251;DHT22;55066;51.560;4.642;2022-10-26T16:47:24;16.88;96.28
68251;DHT22;55066;51.560;4.642;2022-10-26T16:49:50;16.80;96.53
68251;DHT22;55066;51.560;4.642;2022-10-26T16:52:16;16.84;96.30
68251;DHT22;55066;51.560;4.642;2022-10-26T16:54:42;16.70;96.75
68251;DHT22;55066;51.560;4.642;2022-10-26T16:57:07;16.60;97.01
68251;DHT22;55066;51.560;4.642;2022-10-26T16:59:33;16.73;96.81
68251;DHT22;55066;51.560;4.642;2022-10-26T17:01:58;16.88;96.45
68251;DHT22;55066;51.560;4.642;2022-10-26T17:04:23;17.06;95.87
68251;DHT22;55066;51.560;4.642;2022-10-26T17:06:49;17.17;95.40
68251;DHT22;55066;51.560;4.642;2022-10-26T17:09:14;17.28;95.17
68251;DHT22;55066;51.560;4.642;2022-10-26T17:11:40;17.34;94.83
68251;DHT22;55066;51.560;4.642;2022-10-26T17:14:05;17.36;94.83
68251;DHT22;55066;51.560;4.642;2022-10-26T17:16:31;17.32;94.77
68251;DHT22;55066;51.560;4.642;2022-10-26T17:18:56;17.31;95.05
68251;DHT22;55066;51.560;4.642;2022-10-26T17:21:30;17.29;94.93
68251;DHT22;55066;51.560;4.642;2022-10-26T17:23:55;17.22;95.24
68251;DHT22;55066;51.560;4.642;2022-10-26T17:26:20;17.10;95.59
68251;DHT22;55066;51.560;4.642;2022-10-26T17:28:50;16.95;96.06
68251;DHT22;55066;51.560;4.642;2022-10-26T17:31:16;16.90;96.37
68251;DHT22;55066;51.560;4.642;2022-10-26T17:33:42;16.84;96.40